Time;durP1;ratioP1;P1;durP2;ratioP2;P2;SDS_P1;SDS_P2;PMS_P1;PMS_P2;Temp;Humidity;BMP_temperature;BMP_pressure;BME280_temperature;BME280_humidity;BME280_pressure;Samples;Min_cycle;Max_cycle;Signal;HPM_P1;HPM_P2
2022/06/27 00:00:49;;;;;;;5.13;0.75;;;19.80;99.90;;;;;;4148123;28;20125;-50
2022/06/27 00:03:10;;;;;;;7.57;1.40;;;19.60;99.90;;;;;;4143232;28;20041;-51
2022/06/27 00:05:31;;;;;;;5.40;1.25;;;19.70;99.90;;;;;;4143923;28;20057;-49
2022/06/27 00:07:52;;;;;;;11.02;1.17;;;19.60;99.90;;;;;;4152135;28;20084;-49
2022/06/27 00:10:12;;;;;;;5.25;0.75;;;19.90;99.90;;;;;;4149348;28;20053;-50
2022/06/27 00:12:33;;;;;;;7.13;0.80;;;20.00;99.90;;;;;;4155490;28;20156;-48
2022/06/27 00:14:55;;;;;;;3.17;0.80;;;20.00;99.90;;;;;;4153903;28;20060;-49
2022/06/27 00:17:16;;;;;;;4.40;1.00;;;20.00;99.90;;;;;;4147861;28;20056;-50
2022/06/27 00:19:37;;;;;;;2.08;0.90;;;19.90;99.90;;;;;;4150663;28;20461;-49
2022/06/27 00:21:58;;;;;;;4.18;0.70;;;19.70;99.90;;;;;;4143984;28;20384;-50
2022/06/27 00:24:18;;;;;;;5.57;1.02;;;19.30;99.90;;;;;;4144265;28;20077;-50
2022/06/27 00:26:39;;;;;;;9.57;1.10;;;19.30;99.90;;;;;;4143748;28;20052;-47
2022/06/27 00:29:00;;;;;;;4.15;0.80;;;19.30;99.90;;;;;;4143067;28;20104;-49
2022/06/27 00:31:21;;;;;;;8.00;0.95;;;19.30;99.90;;;;;;4142418;28;20049;-48
2022/06/27 00:33:42;;;;;;;4.35;1.85;;;19.40;99.90;;;;;;4143855;28;20547;-47
2022/06/27 00:36:03;;;;;;;4.25;1.00;;;19.50;99.90;;;;;;4146799;28;20335;-49
2022/06/27 00:38:23;;;;;;;2.15;1.20;;;19.40;99.90;;;;;;4145993;28;20594;-48
2022/06/27 00:40:44;;;;;;;5.40;0.85;;;19.50;99.90;;;;;;4146969;28;20112;-50
2022/06/27 00:43:04;;;;;;;2.55;0.93;;;19.40;99.90;;;;;;4149193;28;20056;-49
2022/06/27 00:45:25;;;;;;;2.15;0.70;;;19.50;99.90;;;;;;4150987;28;20056;-49
2022/06/27 00:47:46;;;;;;;2.65;0.90;;;19.10;99.90;;;;;;4146403;28;20057;-48
2022/06/27 00:50:08;;;;;;;3.80;0.98;;;18.80;99.90;;;;;;4155020;28;20083;-48
2022/06/27 00:52:29;;;;;;;2.93;0.83;;;18.70;99.90;;;;;;4146473;28;20142;-48
2022/06/27 00:54:49;;;;;;;5.22;1.00;;;18.60;99.90;;;;;;4146703;28;20075;-47
2022/06/27 00:57:14;;;;;;;4.43;1.20;;;18.60;99.90;;;;;;4146326;28;20045;-47
2022/06/27 00:59:35;;;;;;;8.27;1.17;;;18.70;99.90;;;;;;4146713;28;20148;-47
2022/06/27 01:01:57;;;;;;;2.05;1.00;;;18.70;99.90;;;;;;4146700;28;20116;-49
2022/06/27 01:04:18;;;;;;;1.70;0.68;;;18.80;99.90;;;;;;4146685;28;20053;-48
2022/06/27 01:06:38;;;;;;;9.45;0.90;;;19.00;99.90;;;;;;4146077;28;20525;-49
2022/06/27 01:08:59;;;;;;;3.13;0.88;;;19.00;99.90;;;;;;4146852;28;20085;-49
2022/06/27 01:11:20;;;;;;;4.47;1.17;;;19.00;99.90;;;;;;4157489;28;20099;-50
2022/06/27 01:13:41;;;;;;;7.82;0.90;;;18.80;99.90;;;;;;4154000;28;20057;-49
2022/06/27 01:16:02;;;;;;;2.25;0.90;;;18.60;99.90;;;;;;4146367;28;20072;-49
2022/06/27 01:18:22;;;;;;;2.75;1.10;;;18.60;99.90;;;;;;4158934;28;20123;-50
2022/06/27 01:20:45;;;;;;;2.72;0.88;;;18.80;99.90;;;;;;4148867;28;20116;-47
2022/06/27 01:23:06;;;;;;;7.28;1.50;;;18.90;99.90;;;;;;4146028;28;20531;-46
2022/06/27 01:25:27;;;;;;;2.42;0.80;;;18.60;99.90;;;;;;4145962;28;20052;-47
2022/06/27 01:27:48;;;;;;;4.82;0.90;;;18.50;99.90;;;;;;4145936;28;20093;-49
2022/06/27 01:30:10;;;;;;;4.47;1.40;;;18.60;99.90;;;;;;4145998;28;20096;-48
2022/06/27 01:32:31;;;;;;;2.95;1.13;;;18.50;99.90;;;;;;4146047;28;20076;-50
2022/06/27 01:34:52;;;;;;;7.78;1.10;;;18.60;99.90;;;;;;4146034;28;20115;-47
2022/06/27 01:37:12;;;;;;;9.10;1.00;;;18.70;99.90;;;;;;4146239;28;20057;-48
2022/06/27 01:39:33;;;;;;;6.82;0.80;;;18.70;99.90;;;;;;4145767;28;20057;-48
2022/06/27 01:41:56;;;;;;;3.85;0.82;;;18.70;99.90;;;;;;4145931;28;20145;-48
2022/06/27 01:44:18;;;;;;;2.95;1.20;;;18.60;99.90;;;;;;4158310;28;20408;-47
2022/06/27 01:46:43;;;;;;;3.60;1.03;;;18.50;99.90;;;;;;4145742;28;20127;-49
2022/06/27 01:49:04;;;;;;;2.13;0.77;;;18.40;99.90;;;;;;4145715;28;20331;-46
2022/06/27 01:51:25;;;;;;;6.80;0.95;;;18.30;99.90;;;;;;4158272;28;20044;-46
2022/06/27 01:53:46;;;;;;;6.93;0.90;;;18.30;99.90;;;;;;4145748;28;20059;-49
2022/06/27 01:56:06;;;;;;;5.07;0.80;;;18.30;99.90;;;;;;4145479;28;20137;-49
2022/06/27 01:58:27;;;;;;;4.32;1.02;;;17.90;99.90;;;;;;4144345;28;20052;-49
2022/06/27 02:00:48;;;;;;;3.03;0.80;;;17.90;99.90;;;;;;4145424;28;20049;-49
2022/06/27 02:03:09;;;;;;;2.50;1.13;;;17.80;99.90;;;;;;4145389;28;20572;-48
2022/06/27 02:05:30;;;;;;;7.50;1.63;;;17.90;99.90;;;;;;4145801;28;20676;-49
2022/06/27 02:07:51;;;;;;;3.60;1.27;;;17.90;99.90;;;;;;4150847;28;20053;-49
2022/06/27 02:10:11;;;;;;;3.85;1.23;;;17.90;99.90;;;;;;4145169;28;20080;-48
2022/06/27 02:12:32;;;;;;;2.25;0.95;;;18.10;99.90;;;;;;4161107;28;20067;-46
2022/06/27 02:14:53;;;;;;;6.43;1.33;;;18.10;99.90;;;;;;4148244;28;20064;-49
2022/06/27 02:17:14;;;;;;;5.93;0.80;;;18.20;99.90;;;;;;4144540;28;20052;-46
2022/06/27 02:19:35;;;;;;;4.75;0.85;;;18.20;99.90;;;;;;4145059;28;20123;-47
2022/06/27 02:21:55;;;;;;;2.38;1.17;;;18.30;99.90;;;;;;4145401;28;20080;-48
2022/06/27 02:24:16;;;;;;;6.65;0.90;;;18.30;99.90;;;;;;4152851;28;20048;-49
2022/06/27 02:26:37;;;;;;;1.70;0.80;;;17.90;99.90;;;;;;4145120;28;20100;-48
2022/06/27 02:28:59;;;;;;;5.97;1.10;;;17.90;99.90;;;;;;4145235;28;20125;-46
2022/06/27 02:31:21;;;;;;;9.23;1.20;;;17.80;99.90;;;;;;4145264;28;20520;-50
2022/06/27 02:33:44;;;;;;;4.18;1.95;;;17.80;99.90;;;;;;4144778;28;20532;-49
2022/06/27 02:36:06;;;;;;;5.85;0.80;;;17.90;99.90;;;;;;4145213;28;20402;-49
2022/06/27 02:38:28;;;;;;;3.13;0.80;;;17.90;99.90;;;;;;4144733;28;20068;-48
2022/06/27 02:40:50;;;;;;;2.97;1.10;;;18.00;99.90;;;;;;4145026;28;20056;-47
2022/06/27 02:43:13;;;;;;;2.97;0.82;;;18.00;99.90;;;;;;4148440;28;20039;-48
2022/06/27 02:45:36;;;;;;;1.52;0.70;;;17.80;99.90;;;;;;4158180;28;20044;-48
2022/06/27 02:48:01;;;;;;;4.15;1.17;;;17.70;99.90;;;;;;4144851;28;20120;-46
2022/06/27 02:50:26;;;;;;;5.55;1.63;;;17.50;99.90;;;;;;4155469;28;20052;-50
2022/06/27 02:52:52;;;;;;;4.53;1.08;;;17.20;99.90;;;;;;4150676;28;20049;-50
2022/06/27 02:55:15;;;;;;;5.90;1.50;;;17.20;99.90;;;;;;4144419;28;20096;-49
2022/06/27 02:57:47;;;;;;;4.50;1.10;;;17.30;99.90;;;;;;4144278;28;20057;-48
2022/06/27 03:00:08;;;;;;;9.65;1.75;;;17.40;99.90;;;;;;4144843;28;20052;-48
2022/06/27 03:02:31;;;;;;;1.85;1.30;;;17.50;99.90;;;;;;4145127;28;20149;-50
2022/06/27 03:04:54;;;;;;;4.50;1.10;;;17.50;99.90;;;;;;4156141;28;20084;-49
2022/06/27 03:07:15;;;;;;;6.78;0.80;;;17.30;99.90;;;;;;4147613;28;20123;-47
2022/06/27 03:09:36;;;;;;;4.82;1.15;;;17.20;99.90;;;;;;4144472;28;20049;-50
2022/06/27 03:11:57;;;;;;;5.15;1.33;;;17.30;99.90;;;;;;4144980;28;20568;-50
2022/06/27 03:14:18;;;;;;;5.55;0.90;;;17.20;99.90;;;;;;4144355;28;20112;-50
2022/06/27 03:16:38;;;;;;;4.43;0.80;;;17.20;99.90;;;;;;4144956;28;20108;-47
2022/06/27 03:18:59;;;;;;;3.92;0.90;;;17.30;99.90;;;;;;4144344;28;20129;-47
2022/06/27 03:21:20;;;;;;;6.00;1.40;;;17.50;99.90;;;;;;4153361;28;20114;-48
2022/06/27 03:23:41;;;;;;;6.10;1.15;;;17.50;99.90;;;;;;4158888;28;20091;-48
2022/06/27 03:26:02;;;;;;;6.80;1.17;;;17.30;99.90;;;;;;4144358;28;20056;-46
2022/06/27 03:28:23;;;;;;;5.43;0.90;;;17.20;99.90;;;;;;4144038;28;20414;-48
2022/06/27 03:30:44;;;;;;;2.17;0.80;;;17.10;99.90;;;;;;4144718;28;20137;-49
2022/06/27 03:33:05;;;;;;;3.58;0.80;;;17.20;99.90;;;;;;4144630;28;20060;-47
2022/06/27 03:35:26;;;;;;;3.38;1.20;;;17.30;99.90;;;;;;4144335;28;20108;-49
2022/06/27 03:37:47;;;;;;;3.20;0.80;;;17.40;99.90;;;;;;4144333;28;20528;-44
2022/06/27 03:40:09;;;;;;;4.70;0.98;;;17.30;99.90;;;;;;4144190;28;20124;-49
2022/06/27 03:42:29;;;;;;;5.57;0.90;;;17.20;99.90;;;;;;4144452;28;20068;-47
2022/06/27 03:44:50;;;;;;;3.95;0.90;;;17.00;99.90;;;;;;4143939;28;20049;-48
2022/06/27 03:47:11;;;;;;;4.00;0.90;;;17.00;99.90;;;;;;4144437;28;20049;-50
2022/06/27 03:52:11;;;;;;;5.35;1.23;;;16.80;99.90;;;;;;4160467;28;20107;-48
2022/06/27 03:54:31;;;;;;;7.72;1.15;;;16.70;99.90;;;;;;4144249;28;20069;-49
2022/06/27 03:56:53;;;;;;;3.70;1.10;;;16.50;99.90;;;;;;4144364;28;20064;-48
2022/06/27 03:59:14;;;;;;;3.80;1.30;;;16.50;99.90;;;;;;4148649;28;20515;-48
2022/06/27 04:01:35;;;;;;;4.28;1.00;;;16.80;99.90;;;;;;4161126;28;20053;-47
2022/06/27 04:03:56;;;;;;;7.80;1.10;;;16.70;99.90;;;;;;4144444;28;20126;-47
2022/06/27 04:06:17;;;;;;;6.20;1.42;;;16.80;99.90;;;;;;4143749;28;20048;-50
2022/06/27 04:08:38;;;;;;;3.38;1.45;;;17.00;99.90;;;;;;4153866;28;20080;-49
2022/06/27 04:10:59;;;;;;;1.85;0.80;;;16.90;99.90;;;;;;4149813;28;20040;-46
2022/06/27 04:13:19;;;;;;;2.05;0.80;;;17.00;99.90;;;;;;4147187;28;20509;-49
2022/06/27 04:15:40;;;;;;;5.68;0.85;;;17.20;99.90;;;;;;4147447;28;20104;-49
2022/06/27 04:18:01;;;;;;;9.07;1.00;;;17.20;99.90;;;;;;4154806;28;20425;-49
2022/06/27 04:20:21;;;;;;;4.38;0.90;;;17.20;99.90;;;;;;4146948;28;20599;-46
2022/06/27 04:22:42;;;;;;;2.42;0.70;;;17.10;99.90;;;;;;4147138;28;20111;-50
2022/06/27 04:25:04;;;;;;;4.88;0.80;;;17.00;99.90;;;;;;4146827;28;20163;-46
2022/06/27 04:27:28;;;;;;;3.03;1.13;;;16.90;99.90;;;;;;4146673;28;20073;-49
2022/06/27 04:29:49;;;;;;;2.75;0.85;;;16.80;99.90;;;;;;4147315;28;20544;-47
2022/06/27 04:32:10;;;;;;;1.25;1.05;;;16.80;99.90;;;;;;4147143;28;20690;-50
2022/06/27 04:34:31;;;;;;;1.52;0.88;;;16.90;99.90;;;;;;4147489;28;20077;-47
2022/06/27 04:36:52;;;;;;;5.18;2.10;;;17.10;99.90;;;;;;4145975;28;20052;-47
2022/06/27 04:39:15;;;;;;;3.35;1.25;;;17.10;99.90;;;;;;4146614;28;20129;-46
2022/06/27 04:41:36;;;;;;;3.97;1.02;;;17.20;99.90;;;;;;4146490;28;20096;-46
2022/06/27 04:43:57;;;;;;;3.97;0.80;;;17.20;99.90;;;;;;4150581;28;20845;-50
2022/06/27 04:46:18;;;;;;;3.05;1.20;;;17.20;99.90;;;;;;4146898;28;20449;-48
2022/06/27 04:48:39;;;;;;;10.80;1.85;;;17.20;99.90;;;;;;4146793;28;20132;-48
2022/06/27 04:50:59;;;;;;;7.53;1.33;;;17.10;99.90;;;;;;4150730;28;20084;-47
2022/06/27 04:53:20;;;;;;;6.28;1.55;;;17.10;99.90;;;;;;4146527;28;20554;-48
2022/06/27 04:55:41;;;;;;;1.55;0.93;;;17.20;99.90;;;;;;4152613;28;20052;-46
2022/06/27 04:58:03;;;;;;;5.85;0.98;;;17.20;99.90;;;;;;4146479;28;20102;-49
2022/06/27 05:00:23;;;;;;;11.55;1.35;;;17.20;99.90;;;;;;4146422;28;20429;-48
2022/06/27 05:02:45;;;;;;;4.35;1.17;;;17.30;99.90;;;;;;4146534;28;20557;-51
2022/06/27 05:05:06;;;;;;;7.22;1.35;;;17.30;99.90;;;;;;4146362;28;20061;-48
2022/06/27 05:07:29;;;;;;;8.68;1.48;;;17.30;99.90;;;;;;4150883;28;20084;-48
2022/06/27 05:09:52;;;;;;;5.53;1.55;;;17.40;99.90;;;;;;4153490;28;20092;-50
2022/06/27 05:12:13;;;;;;;5.05;1.00;;;17.60;99.90;;;;;;4156898;28;20052;-46
2022/06/27 05:14:34;;;;;;;3.13;1.15;;;17.70;99.90;;;;;;4145410;28;20137;-49
2022/06/27 05:16:55;;;;;;;8.75;1.00;;;17.80;99.90;;;;;;4147007;28;20052;-46
2022/06/27 05:19:16;;;;;;;4.30;0.90;;;17.80;99.90;;;;;;4154180;28;20096;-49
2022/06/27 05:21:37;;;;;;;4.28;1.00;;;17.80;99.90;;;;;;4145433;28;20048;-47
2022/06/27 05:23:58;;;;;;;3.33;0.90;;;17.80;99.90;;;;;;4145786;28;20468;-45
2022/06/27 05:26:19;;;;;;;2.88;1.50;;;17.80;99.90;;;;;;4145602;28;20092;-48
2022/06/27 05:28:40;;;;;;;3.67;1.48;;;17.80;99.90;;;;;;4145456;28;20504;-49
2022/06/27 05:31:01;;;;;;;8.25;1.17;;;17.80;99.90;;;;;;4145864;28;20048;-50
2022/06/27 05:33:22;;;;;;;9.10;0.95;;;17.80;99.90;;;;;;4145677;28;20140;-48
2022/06/27 05:35:44;;;;;;;6.05;1.15;;;17.80;99.90;;;;;;4158443;28;20055;-49
2022/06/27 05:38:04;;;;;;;16.35;2.78;;;18.00;99.90;;;;;;4156448;28;20056;-48
2022/06/27 05:40:27;;;;;;;7.47;1.05;;;18.00;99.90;;;;;;4145962;28;20335;-49
2022/06/27 05:42:48;;;;;;;4.87;1.07;;;18.20;99.90;;;;;;4149691;28;20063;-48
2022/06/27 05:45:10;;;;;;;3.08;1.00;;;18.30;99.90;;;;;;4150934;28;20418;-46
2022/06/27 05:47:31;;;;;;;1.65;0.95;;;18.40;99.90;;;;;;4145578;28;20449;-50
2022/06/27 05:49:52;;;;;;;5.38;1.30;;;18.60;99.90;;;;;;4152689;28;20065;-48
2022/06/27 05:52:13;;;;;;;1.38;0.82;;;18.60;99.90;;;;;;4154457;28;20048;-46
2022/06/27 05:54:35;;;;;;;3.58;0.85;;;18.60;99.90;;;;;;4152399;28;20141;-48
2022/06/27 05:56:56;;;;;;;;;;;18.70;99.90;;;;;;4146188;28;20056;-50
2022/06/27 05:59:17;;;;;;;2.60;0.90;;;18.80;99.90;;;;;;4145763;28;19927;-47
2022/06/27 06:01:39;;;;;;;4.18;0.90;;;19.00;99.90;;;;;;4145528;28;20067;-49
2022/06/27 06:04:00;;;;;;;6.38;1.23;;;19.30;99.90;;;;;;4145862;28;20080;-49
2022/06/27 06:06:25;;;;;;;5.75;1.10;;;19.30;99.90;;;;;;4145498;28;20061;-49
2022/06/27 06:08:46;;;;;;;3.25;1.02;;;19.40;99.90;;;;;;4160006;28;20076;-49
2022/06/27 06:11:06;;;;;;;3.00;1.10;;;19.80;99.90;;;;;;4151339;28;20436;-48
2022/06/27 06:13:28;;;;;;;7.43;0.82;;;20.00;99.90;;;;;;4154292;28;20088;-49
2022/06/27 06:15:48;;;;;;;4.82;0.88;;;20.30;99.90;;;;;;4145455;28;20108;-49
2022/06/27 06:18:09;;;;;;;5.32;0.80;;;20.40;99.90;;;;;;4155952;28;20107;-49
2022/06/27 06:20:32;;;;;;;10.77;1.25;;;20.70;99.90;;;;;;4148369;28;20606;-49
2022/06/27 06:22:53;;;;;;;7.53;0.80;;;20.90;99.90;;;;;;4145254;28;20056;-47
2022/06/27 06:25:14;;;;;;;4.45;0.90;;;20.90;99.90;;;;;;4145352;28;20161;-49
2022/06/27 06:27:35;;;;;;;5.22;1.38;;;21.20;99.90;;;;;;4144955;28;20702;-49
2022/06/27 06:30:02;;;;;;;10.93;1.15;;;21.50;99.90;;;;;;4144795;28;20046;-46
2022/06/27 06:32:24;;;;;;;2.92;0.88;;;21.80;99.90;;;;;;4144513;28;20085;-48
2022/06/27 06:34:45;;;;;;;5.90;1.00;;;22.10;99.90;;;;;;4145182;28;20355;-49
2022/06/27 06:37:09;;;;;;;8.05;0.85;;;22.20;99.90;;;;;;4145131;28;20061;-48
2022/06/27 06:39:33;;;;;;;6.18;1.10;;;22.40;99.90;;;;;;4144933;28;20547;-48
2022/06/27 06:41:54;;;;;;;7.40;0.82;;;22.10;99.90;;;;;;4145158;28;20056;-46
2022/06/27 06:44:15;;;;;;;4.88;1.05;;;22.00;99.90;;;;;;4157151;28;20048;-46
2022/06/27 06:46:36;;;;;;;12.23;0.90;;;22.00;99.90;;;;;;4145465;28;20057;-49
2022/06/27 06:49:06;;;;;;;5.65;1.00;;;21.90;99.90;;;;;;4146048;28;20056;-48
2022/06/27 06:51:27;;;;;;;8.38;0.98;;;21.90;99.90;;;;;;4155589;28;20061;-49
2022/06/27 06:53:47;;;;;;;12.57;1.45;;;22.10;99.90;;;;;;4144461;28;20049;-49
2022/06/27 06:56:08;;;;;;;6.13;0.90;;;22.30;99.90;;;;;;4144816;28;20084;-49
2022/06/27 06:58:29;;;;;;;11.00;0.70;;;22.40;99.90;;;;;;4144527;28;20150;-49
2022/06/27 07:00:52;;;;;;;4.40;1.25;;;22.50;99.90;;;;;;4145098;28;20102;-48
2022/06/27 07:03:13;;;;;;;9.77;1.58;;;22.60;99.90;;;;;;4144949;28;20084;-47
2022/06/27 07:05:35;;;;;;;7.63;0.80;;;22.70;99.90;;;;;;4144725;28;20192;-49
2022/06/27 07:07:56;;;;;;;7.40;0.85;;;22.90;99.90;;;;;;4153133;28;20125;-46
2022/06/27 07:10:18;;;;;;;9.50;1.10;;;23.30;99.90;;;;;;4158208;28;20052;-46
2022/06/27 07:12:40;;;;;;;14.75;0.90;;;23.30;99.90;;;;;;4144412;28;20421;-49
2022/06/27 07:15:01;;;;;;;9.93;0.90;;;23.30;99.90;;;;;;4144733;28;20095;-49
2022/06/27 07:17:24;;;;;;;8.02;1.20;;;23.40;99.90;;;;;;4149149;28;20103;-49
2022/06/27 07:19:50;;;;;;;5.53;0.70;;;23.40;99.90;;;;;;4158455;28;20115;-49
2022/06/27 07:22:11;;;;;;;10.85;1.10;;;23.90;99.90;;;;;;4144321;28;20056;-49
2022/06/27 07:24:32;;;;;;;12.32;0.82;;;24.20;99.90;;;;;;4144204;28;20137;-47
2022/06/27 07:26:53;;;;;;;7.32;0.80;;;24.30;99.90;;;;;;4144351;28;20057;-47
2022/06/27 07:29:14;;;;;;;9.55;1.85;;;24.40;99.90;;;;;;4144291;28;20119;-50
2022/06/27 07:31:35;;;;;;;12.73;1.20;;;24.40;99.90;;;;;;4144521;28;20137;-48
2022/06/27 07:33:56;;;;;;;10.98;0.80;;;24.50;99.90;;;;;;4144247;28;20721;-47
2022/06/27 07:36:20;;;;;;;6.55;1.00;;;25.20;99.90;;;;;;4144494;28;20061;-48
2022/06/27 07:38:46;;;;;;;15.02;0.70;;;25.50;99.90;;;;;;4144488;28;20084;-47
2022/06/27 07:41:08;;;;;;;14.15;1.88;;;25.70;99.90;;;;;;4144417;28;20057;-49
2022/06/27 07:43:29;;;;;;;3.78;1.05;;;25.70;99.90;;;;;;4150810;28;20052;-45
2022/06/27 07:45:51;;;;;;;4.72;0.90;;;25.90;99.90;;;;;;4147379;28;20052;-50
2022/06/27 07:48:12;;;;;;;11.38;0.98;;;26.00;99.90;;;;;;4147694;28;20092;-48
2022/06/27 07:50:36;;;;;;;12.93;0.90;;;26.10;99.90;;;;;;4159832;28;20555;-45
2022/06/27 07:53:15;;;;;;;3.67;0.90;;;26.40;99.90;;;;;;4150847;28;20056;-49
2022/06/27 07:55:37;;;;;;;12.98;1.10;;;26.50;99.90;;;;;;4146602;28;20360;-48
2022/06/27 07:57:57;;;;;;;10.75;1.02;;;26.60;99.90;;;;;;4147391;28;20587;-45
2022/06/27 08:00:19;;;;;;;8.77;1.17;;;26.80;99.50;;;;;;4147494;28;20060;-50
2022/06/27 08:02:41;;;;;;;8.25;0.68;;;27.30;99.90;;;;;;4160997;28;20052;-49
2022/06/27 08:05:02;;;;;;;13.07;0.80;;;27.70;99.20;;;;;;4156321;28;20525;-50
2022/06/27 08:07:23;;;;;;;7.05;1.02;;;28.00;99.30;;;;;;4150761;28;20049;-47
2022/06/27 08:09:44;;;;;;;4.43;0.70;;;28.20;99.20;;;;;;4147437;28;20595;-49
2022/06/27 08:12:05;;;;;;;11.00;1.98;;;28.50;98.80;;;;;;4159422;28;20048;-50
2022/06/27 08:14:26;;;;;;;6.88;0.80;;;28.50;98.00;;;;;;4157354;28;20052;-49
2022/06/27 08:16:50;;;;;;;10.43;0.90;;;28.50;98.60;;;;;;4147233;28;20092;-49
2022/06/27 08:19:12;;;;;;;11.27;0.88;;;28.80;97.90;;;;;;4146628;28;21665;-50
2022/06/27 08:21:34;;;;;;;5.75;0.77;;;29.20;97.40;;;;;;4147114;28;20084;-49
2022/06/27 08:23:58;;;;;;;8.50;0.93;;;29.10;95.20;;;;;;4146955;28;20056;-50
2022/06/27 08:26:20;;;;;;;14.55;1.17;;;28.90;96.00;;;;;;4146955;28;20064;-50
2022/06/27 08:28:44;;;;;;;12.68;1.05;;;29.30;96.00;;;;;;4146941;28;20060;-49
2022/06/27 08:31:07;;;;;;;8.15;0.70;;;29.00;95.40;;;;;;4147305;28;20112;-49
2022/06/27 08:33:30;;;;;;;7.25;0.80;;;29.30;95.90;;;;;;4147010;28;20092;-49
2022/06/27 08:35:51;;;;;;;8.93;0.70;;;29.40;94.40;;;;;;4147010;28;20057;-51
2022/06/27 08:38:12;;;;;;;13.50;2.00;;;29.50;95.30;;;;;;4147054;28;20104;-51
2022/06/27 08:40:33;;;;;;;9.65;1.38;;;29.80;94.40;;;;;;4151702;28;20088;-50
2022/06/27 08:42:57;;;;;;;12.65;0.80;;;30.10;94.40;;;;;;4160875;28;20121;-48
2022/06/27 08:45:23;;;;;;;10.30;1.70;;;30.20;93.00;;;;;;4163126;28;20131;-49
2022/06/27 08:47:43;;;;;;;7.43;0.90;;;30.10;92.70;;;;;;4146750;28;20120;-50
2022/06/27 08:50:07;;;;;;;17.10;1.45;;;29.90;92.80;;;;;;4154542;28;20052;-49
2022/06/27 08:52:28;;;;;;;7.97;0.93;;;30.20;92.70;;;;;;4159174;28;20095;-51
2022/06/27 08:54:51;;;;;;;20.70;0.93;;;30.60;92.60;;;;;;4146113;28;20120;-50
2022/06/27 08:57:12;;;;;;;8.10;0.70;;;30.60;90.90;;;;;;4146542;28;20500;-49
2022/06/27 08:59:36;;;;;;;16.60;0.80;;;31.00;91.50;;;;;;4146595;28;20298;-47
2022/06/27 09:01:57;;;;;;;21.48;1.65;;;31.00;90.90;;;;;;4146497;28;20104;-45
2022/06/27 09:04:19;;;;;;;17.40;1.42;;;31.30;91.20;;;;;;4146549;28;20056;-48
2022/06/27 09:06:43;;;;;;;12.30;1.23;;;31.70;90.50;;;;;;4146450;28;20104;-49
2022/06/27 09:09:08;;;;;;;27.65;1.15;;;31.80;86.80;;;;;;4146207;28;20079;-49
2022/06/27 09:11:32;;;;;;;13.35;1.25;;;31.70;88.60;;;;;;4150508;28;20048;-50
2022/06/27 09:13:53;;;;;;;16.35;0.80;;;32.00;88.50;;;;;;4146337;28;20401;-49
2022/06/27 09:16:16;;;;;;;11.27;0.85;;;32.20;85.10;;;;;;4146630;28;20164;-50
2022/06/27 09:18:38;;;;;;;14.02;0.82;;;32.20;85.70;;;;;;4151874;28;20080;-50
2022/06/27 09:21:01;;;;;;;19.98;0.90;;;32.50;86.20;;;;;;4145888;28;20159;-50
2022/06/27 09:23:50;;;;;;;15.20;1.48;;;32.30;82.90;;;;;;4146241;28;20053;-50
2022/06/27 09:26:15;;;;;;;28.52;1.23;;;32.40;80.30;;;;;;4145978;28;20093;-50
2022/06/27 09:28:41;;;;;;;13.32;0.85;;;32.50;83.50;;;;;;4145989;28;20134;-49
2022/06/27 09:31:02;;;;;;;10.98;0.77;;;32.80;84.80;;;;;;4145843;28;20116;-50
2022/06/27 09:33:26;;;;;;;18.08;1.10;;;33.10;82.90;;;;;;4146472;28;20159;-49
2022/06/27 09:35:47;;;;;;;15.05;1.35;;;33.20;77.20;;;;;;4162501;28;20048;-51
2022/06/27 09:38:10;;;;;;;16.08;1.35;;;33.30;82.40;;;;;;4148050;28;20142;-48
2022/06/27 09:40:33;;;;;;;20.45;1.33;;;33.60;82.40;;;;;;4153715;28;20041;-51
2022/06/27 09:42:57;;;;;;;13.10;0.90;;;33.40;77.70;;;;;;4150310;28;20480;-49
2022/06/27 09:45:22;;;;;;;8.77;1.03;;;33.40;79.50;;;;;;4149974;28;20051;-51
2022/06/27 09:47:44;;;;;;;16.70;0.70;;;33.50;75.70;;;;;;4144817;28;20147;-50
2022/06/27 09:50:06;;;;;;;16.52;1.30;;;33.90;81.70;;;;;;4148788;28;20931;-49
2022/06/27 09:52:27;;;;;;;16.77;1.33;;;34.00;73.40;;;;;;4144479;28;20410;-50
2022/06/27 09:54:50;;;;;;;17.20;0.98;;;34.00;77.30;;;;;;4160939;28;20575;-51
2022/06/27 09:57:12;;;;;;;11.30;1.00;;;33.90;75.30;;;;;;4150190;28;20060;-51
2022/06/27 09:59:35;;;;;;;17.33;1.52;;;34.10;73.00;;;;;;4145323;28;20060;-49
2022/06/27 10:01:57;;;;;;;;;;;34.40;73.70;;;;;;4152117;28;20481;-50
2022/06/27 10:04:24;;;;;;;10.75;1.00;;;34.60;71.60;;;;;;4145039;28;19933;-50
2022/06/27 10:06:46;;;;;;;17.33;1.20;;;34.40;73.50;;;;;;4155097;28;20384;-50
2022/06/27 10:09:08;;;;;;;13.87;1.10;;;33.80;71.40;;;;;;4149701;28;20052;-50
2022/06/27 10:11:29;;;;;;;10.80;0.80;;;34.20;70.90;;;;;;4155610;28;20047;-49
2022/06/27 10:14:22;;;;;;;16.98;1.23;;;34.40;71.80;;;;;;4155856;28;20072;-50
2022/06/27 10:16:58;;;;;;;16.60;1.08;;;34.30;68.60;;;;;;4147987;28;20053;-49
2022/06/27 10:19:21;;;;;;;20.98;1.83;;;34.40;72.30;;;;;;4145005;28;20417;-51
2022/06/27 10:21:46;;;;;;;20.30;2.25;;;34.50;72.40;;;;;;4145383;28;20138;-50
2022/06/27 10:24:21;;;;;;;7.65;0.73;;;34.40;71.10;;;;;;4148730;28;20111;-51
2022/06/27 10:26:42;;;;;;;17.52;2.05;;;34.60;68.50;;;;;;4144850;28;20056;-51
2022/06/27 10:29:33;;;;;;;11.27;0.70;;;35.10;72.60;;;;;;4147805;28;20072;-49
2022/06/27 10:31:54;;;;;;;13.23;0.82;;;35.10;68.40;;;;;;4146075;28;20082;-51
2022/06/27 10:34:15;;;;;;;17.30;1.45;;;35.00;67.90;;;;;;4152772;28;20048;-48
2022/06/27 10:36:36;;;;;;;18.13;0.90;;;34.80;68.20;;;;;;4145903;28;20421;-48
2022/06/27 10:38:59;;;;;;;13.87;0.83;;;34.50;68.20;;;;;;4144737;28;20052;-50
2022/06/27 10:41:20;;;;;;;13.45;1.05;;;34.30;66.40;;;;;;4151532;28;20081;-50
2022/06/27 10:43:41;;;;;;;22.17;1.33;;;34.80;67.20;;;;;;4156409;28;20493;-49
2022/06/27 10:46:11;;;;;;;14.73;1.20;;;34.70;69.20;;;;;;4146553;28;20072;-49
2022/06/27 10:48:39;;;;;;;19.02;1.33;;;35.20;69.80;;;;;;4144267;28;20057;-50
2022/06/27 10:51:19;;;;;;;12.82;0.80;;;35.50;67.80;;;;;;4152013;28;20057;-50
2022/06/27 10:53:42;;;;;;;13.52;1.10;;;35.50;66.90;;;;;;4149348;28;20060;-51
2022/06/27 10:56:31;;;;;;;12.10;1.23;;;35.30;66.00;;;;;;4160053;28;20139;-50
2022/06/27 10:58:52;;;;;;;22.23;1.42;;;35.10;68.20;;;;;;4147180;28;20052;-50
2022/06/27 11:01:16;;;;;;;11.45;1.75;;;35.50;70.30;;;;;;4146619;28;20053;-48
2022/06/27 11:03:39;;;;;;;12.85;1.08;;;35.60;64.30;;;;;;4154679;28;20058;-49
2022/06/27 11:06:04;;;;;;;14.20;1.23;;;35.50;67.60;;;;;;4144807;28;20056;-50
2022/06/27 11:08:25;;;;;;;12.38;0.90;;;35.10;67.20;;;;;;4156924;28;20056;-50
2022/06/27 11:10:47;;;;;;;12.30;0.80;;;35.20;67.50;;;;;;4155346;28;20061;-51
2022/06/27 11:13:07;;;;;;;10.35;1.58;;;35.40;69.30;;;;;;4154827;28;20323;-51
2022/06/27 11:15:28;;;;;;;15.73;0.90;;;35.60;65.70;;;;;;4157972;28;20143;-51
2022/06/27 11:17:49;;;;;;;11.97;1.30;;;35.20;65.40;;;;;;4152515;28;20119;-50
2022/06/27 11:20:13;;;;;;;11.57;1.13;;;35.40;69.10;;;;;;4148615;28;20295;-49
2022/06/27 11:23:00;;;;;;;13.13;1.05;;;35.40;67.00;;;;;;4144323;28;20071;-49
2022/06/27 11:25:22;;;;;;;15.48;1.10;;;35.80;66.90;;;;;;4144488;28;20536;-51
2022/06/27 11:27:45;;;;;;;15.75;1.00;;;35.90;68.50;;;;;;4146191;28;20536;-51
2022/06/27 11:32:46;;;;;;;20.40;1.42;;;35.90;64.10;;;;;;4150155;28;20048;-49
2022/06/27 11:35:08;;;;;;;15.07;1.10;;;36.10;63.60;;;;;;4144373;28;20505;-49
2022/06/27 11:37:30;;;;;;;13.50;1.10;;;36.40;67.50;;;;;;4154254;28;20526;-50
2022/06/27 11:39:59;;;;;;;16.38;2.00;;;36.70;65.20;;;;;;4148483;28;20048;-51
2022/06/27 11:42:30;;;;;;;10.02;1.10;;;36.30;68.30;;;;;;4150732;28;20683;-50
2022/06/27 11:45:13;;;;;;;13.98;0.90;;;36.80;63.40;;;;;;4145386;28;20049;-51
2022/06/27 11:47:37;;;;;;;10.25;0.80;;;36.90;65.00;;;;;;4159200;28;20474;-50
2022/06/27 11:50:05;;;;;;;32.15;2.35;;;36.60;65.30;;;;;;4151869;28;20080;-50
2022/06/27 11:52:37;;;;;;;10.30;0.80;;;36.80;68.90;;;;;;4145485;28;20049;-49
2022/06/27 11:55:26;;;;;;;7.57;1.10;;;37.00;64.70;;;;;;4144338;28;20055;-50
2022/06/27 11:57:53;;;;;;;15.18;0.90;;;37.00;64.10;;;;;;4142848;28;20170;-49
2022/06/27 12:00:20;;;;;;;15.75;1.40;;;36.80;62.00;;;;;;4144422;28;20100;-50
2022/06/27 12:02:41;;;;;;;10.32;0.80;;;37.00;65.30;;;;;;4144316;28;20108;-51
2022/06/27 12:05:08;;;;;;;10.32;1.15;;;36.80;58.90;;;;;;4144720;28;20052;-49
2022/06/27 12:07:29;;;;;;;21.05;1.50;;;36.90;63.30;;;;;;4148854;28;20091;-50
2022/06/27 12:09:52;;;;;;;17.70;0.90;;;36.40;58.80;;;;;;4159112;28;20057;-48
2022/06/27 12:12:17;;;;;;;19.20;1.38;;;36.30;59.70;;;;;;4157037;28;20437;-50
2022/06/27 12:14:48;;;;;;;21.30;1.40;;;36.70;63.30;;;;;;4148370;28;20346;-49
2022/06/27 12:17:09;;;;;;;18.05;1.02;;;37.00;60.70;;;;;;4151078;28;20592;-48
2022/06/27 12:19:30;;;;;;;16.13;1.55;;;36.50;58.70;;;;;;4144087;28;20536;-49
2022/06/27 12:21:51;;;;;;;18.58;1.17;;;36.80;60.60;;;;;;4149901;28;20052;-49
2022/06/27 12:24:13;;;;;;;14.43;1.52;;;36.40;59.30;;;;;;4149377;28;20052;-48